Airfield :
LOGIN :

Register | Disclaimer

   EN    FR    IT 

 










Legend :    VFR   Marginal VFR   IFR   Intensive IFR   Very Intensive IFR
Visi :
Ceiling :
>= 8 km
>= 3000ft
5 to 8 km
1000 to 3000 ft
1500m to 5 km
500 to 1000 ft
800 to 1500m
200 to 500 ft
< 800m
< 200 ft
Symbols :   Thunderstorms  Fog  Heavy snow  Heavy precipitations  Wind > 20 kt
SIGMETs :     Misc.  Thunderstorms  Icing  Turbulence  Mountain Waves  Volcanic Ashes






- Airport Elevation : 1682 ft
- IATA code : VIT


LEVT - Vitoria Gasteiz

CURRENT METAR :
  • 131400Z 01009KT 330V060 9999 FEW030 SCT045 24/15 Q1018

EXPIRED METARs :
  • 131330Z 04008KT 350V110 9999 FEW030 SCT045 24/16 Q1018
  • 131300Z 06005KT 9999 FEW030 SCT045 25/15 Q1018
  • 131230Z 05005KT 340V140 9999 FEW030 SCT045 23/15 Q1018
  • 131200Z 03004KT 9999 FEW026 SCT050 23/15 Q1018
  • 131130Z 08004KT 350V150 9999 FEW026 SCT050 22/14 Q1019

TAF TAF LEVT
Valid from the 13 at 12:00 until the 14 at 12:00 UTC


131100Z 1312/1412 VRB04KT 9999 FEW020 SCT030 TX23/1314Z TN13/1405Z
TEMPO 1312/1320 02010KT
PROB40
TEMPO 1400/1407 3000 BR BKN010
PROB30
TEMPO 1400/1406 0800 BCFG BKN003



MET'MAP, your aeronautical weather chart ! - Copyright ORBIFLY December 2007 - Disclaimer

ORBIFLY MET'MAP TEAM :

Programming & Development : Alexandra Zaïnal
Concept & original design : Baudouin d'Aumeries
Assistance for programming : Marc-Olivier Méhu
Technical & hardware support : Manuel Goepfert

Contact : metmap@orbifly.com




SOURCES & CREDITS :

   NOAA